createdAt,value
2023-01-18T00:01:15.926Z,-2.30
2023-01-18T00:03:42.556Z,-2.19
2023-01-18T00:06:10.715Z,-2.31
2023-01-18T00:08:38.664Z,-2.40
2023-01-18T00:11:06.956Z,-2.35
2023-01-18T00:13:33.984Z,-2.39
2023-01-18T00:16:09.974Z,-2.47
2023-01-18T00:18:36.580Z,-2.27
2023-01-18T00:21:04.563Z,-2.20
2023-01-18T00:23:31.372Z,-2.32
2023-01-18T00:26:02.103Z,-2.21
2023-01-18T00:28:29.101Z,-2.31
2023-01-18T00:30:55.473Z,-2.30
2023-01-18T00:33:22.171Z,-2.39
2023-01-18T00:35:58.695Z,-2.24
2023-01-18T00:38:25.761Z,-2.23
2023-01-18T00:40:52.167Z,-2.18
2023-01-18T00:43:37.063Z,-2.27
2023-01-18T00:46:03.474Z,-2.37
2023-01-18T00:48:29.925Z,-2.30
2023-01-18T00:50:56.311Z,-2.29
2023-01-18T00:53:22.698Z,-2.19
2023-01-18T00:55:49.094Z,-2.06
2023-01-18T00:58:15.516Z,-2.29
2023-01-18T01:00:42.181Z,-2.26
2023-01-18T01:03:08.803Z,-2.44
2023-01-18T01:05:56.342Z,-2.56
2023-01-18T01:08:23.542Z,-2.58
2023-01-18T01:10:51.254Z,-2.67
2023-01-18T01:13:38.515Z,-2.34
2023-01-18T01:16:28.563Z,-2.20
2023-01-18T01:19:13.914Z,-2.46
2023-01-18T01:21:59.470Z,-2.60
2023-01-18T01:24:44.808Z,-2.69
2023-01-18T01:27:12.011Z,-2.66
2023-01-18T01:29:38.735Z,-2.61
2023-01-18T01:32:05.705Z,-2.62
2023-01-18T01:34:32.528Z,-2.49
2023-01-18T01:36:58.882Z,-2.38
2023-01-18T01:39:25.279Z,-2.44
2023-01-18T01:41:51.680Z,-2.75
2023-01-18T01:44:18.371Z,-2.72
2023-01-18T01:46:49.953Z,-2.75
2023-01-18T01:49:18.928Z,-2.72
2023-01-18T01:51:47.668Z,-2.74
2023-01-18T01:54:24.966Z,-2.83
2023-01-18T01:56:53.800Z,-2.77
2023-01-18T01:59:20.263Z,-2.79
2023-01-18T02:01:46.728Z,-2.78
2023-01-18T02:04:13.197Z,-2.87
2023-01-18T02:06:40.069Z,-2.90
2023-01-18T02:09:15.598Z,-2.85
2023-01-18T02:11:43.114Z,-2.73
2023-01-18T02:14:12.418Z,-2.82
2023-01-18T02:17:05.017Z,-2.93
2023-01-18T02:19:49.947Z,-2.78
2023-01-18T02:22:25.437Z,-2.68
2023-01-18T02:25:26.944Z,-2.85
2023-01-18T02:28:15.623Z,-2.86
2023-01-18T02:30:49.463Z,-2.90
2023-01-18T02:33:25.758Z,-3.01
2023-01-18T02:35:56.812Z,-2.78
2023-01-18T02:38:40.073Z,-2.61
2023-01-18T02:41:09.582Z,-2.83
2023-01-18T02:43:54.883Z,-2.95
2023-01-18T02:46:30.735Z,-2.94
2023-01-18T02:48:58.146Z,-3.12
2023-01-18T02:51:25.245Z,-3.21
2023-01-18T02:53:51.626Z,-3.11
2023-01-18T02:56:21.975Z,-2.89
2023-01-18T02:59:12.978Z,-2.83
2023-01-18T03:01:50.852Z,-2.86
2023-01-18T03:04:22.573Z,-2.74
2023-01-18T03:06:51.875Z,-2.84
2023-01-18T03:09:21.316Z,-2.94
2023-01-18T03:11:56.826Z,-3.03
2023-01-18T03:14:44.399Z,-3.32
2023-01-18T03:17:28.947Z,-3.30
2023-01-18T03:20:08.296Z,-3.40
2023-01-18T03:23:15.423Z,-3.36
2023-01-18T03:25:44.413Z,-3.20
2023-01-18T03:28:33.528Z,-3.11
2023-01-18T03:31:22.128Z,-3.03
2023-01-18T03:33:53.866Z,-2.97
2023-01-18T03:36:36.194Z,-2.81
2023-01-18T03:39:03.939Z,-2.81
2023-01-18T03:41:32.962Z,-2.87
2023-01-18T03:44:03.985Z,-2.93
2023-01-18T03:46:32.087Z,-2.98
2023-01-18T03:48:58.797Z,-2.96
2023-01-18T03:51:40.859Z,-2.93
2023-01-18T03:54:34.690Z,-2.86
2023-01-18T03:57:17.540Z,-2.77
2023-01-18T03:59:44.222Z,-2.87
2023-01-18T04:02:10.632Z,-2.97
2023-01-18T04:04:37.087Z,-3.11
2023-01-18T04:07:04.162Z,-3.05
2023-01-18T04:09:30.550Z,-2.92
2023-01-18T04:11:56.925Z,-2.98
2023-01-18T04:14:23.320Z,-3.10
2023-01-18T04:16:50.266Z,-3.10
2023-01-18T04:19:17.140Z,-3.31
2023-01-18T04:21:43.680Z,-2.99
2023-01-18T04:24:11.224Z,-3.06
2023-01-18T04:26:38.324Z,-2.92
2023-01-18T04:29:05.300Z,-2.84
2023-01-18T04:31:32.857Z,-2.81
2023-01-18T04:33:59.328Z,-2.84
2023-01-18T04:36:25.761Z,-3.03
2023-01-18T04:38:53.836Z,-2.93
2023-01-18T04:41:20.345Z,-3.08
2023-01-18T04:43:46.703Z,-3.24
2023-01-18T04:46:13.167Z,-3.33
2023-01-18T04:48:39.579Z,-3.41
2023-01-18T04:51:11.668Z,-3.32
2023-01-18T04:53:38.138Z,-3.27
2023-01-18T04:56:04.834Z,-3.30
2023-01-18T04:58:31.271Z,-3.38
2023-01-18T05:01:02.341Z,-3.33
2023-01-18T05:03:28.795Z,-3.14
2023-01-18T05:05:55.259Z,-3.24
2023-01-18T05:08:21.975Z,-3.27
2023-01-18T05:10:48.351Z,-3.49
2023-01-18T05:13:14.748Z,-3.38
2023-01-18T05:15:41.139Z,-3.25
2023-01-18T05:18:07.511Z,-3.06
2023-01-18T05:20:33.902Z,-3.02
2023-01-18T05:23:02.204Z,-2.95
2023-01-18T05:25:28.578Z,-2.99
2023-01-18T05:27:54.942Z,-2.99
2023-01-18T05:30:21.334Z,-3.20
2023-01-18T05:32:47.718Z,-3.30
2023-01-18T05:35:14.469Z,-3.24
2023-01-18T05:37:40.869Z,-3.26
2023-01-18T05:40:09.218Z,-3.47
2023-01-18T05:42:35.586Z,-3.63
2023-01-18T05:45:01.994Z,-3.61
2023-01-18T05:47:28.519Z,-3.59
2023-01-18T05:49:57.692Z,-3.52
2023-01-18T05:52:24.099Z,-3.34
2023-01-18T05:54:50.466Z,-3.16
2023-01-18T05:57:16.854Z,-3.04
2023-01-18T05:59:43.230Z,-3.09
2023-01-18T06:02:09.721Z,-3.13
2023-01-18T06:04:36.228Z,-3.15
2023-01-18T06:07:02.735Z,-3.31
2023-01-18T06:09:30.051Z,-3.35
2023-01-18T06:11:56.689Z,-3.28
2023-01-18T06:14:23.221Z,-3.36
2023-01-18T06:16:49.620Z,-3.47
2023-01-18T06:19:16.082Z,-3.48
2023-01-18T06:21:42.493Z,-3.34
2023-01-18T06:24:08.898Z,-3.25
2023-01-18T06:26:35.316Z,-3.19
2023-01-18T06:29:01.753Z,-3.20
2023-01-18T06:31:28.190Z,-3.31
2023-01-18T06:33:54.584Z,-3.29
2023-01-18T06:36:20.971Z,-3.35
2023-01-18T06:38:47.338Z,-3.47
2023-01-18T06:41:13.785Z,-3.43
2023-01-18T06:43:40.165Z,-3.42
2023-01-18T06:46:08.086Z,-3.26
2023-01-18T06:48:34.519Z,-3.21
2023-01-18T06:51:00.995Z,-3.06
2023-01-18T06:53:27.461Z,-3.06
2023-01-18T06:55:58.539Z,-3.04
2023-01-18T06:58:26.319Z,-3.06
2023-01-18T07:00:56.468Z,-3.13
2023-01-18T07:03:23.773Z,-3.08
2023-01-18T07:05:50.232Z,-3.01
2023-01-18T07:08:16.771Z,-3.03
2023-01-18T07:10:43.152Z,-2.93
2023-01-18T07:13:09.533Z,-2.94
2023-01-18T07:15:35.910Z,-2.89
2023-01-18T07:18:02.289Z,-2.82
2023-01-18T07:20:29.422Z,-2.91
2023-01-18T07:22:56.269Z,-2.89
2023-01-18T07:25:22.941Z,-2.82
2023-01-18T07:27:49.786Z,-2.76
2023-01-18T07:30:16.903Z,-2.75
2023-01-18T07:32:51.281Z,-2.73
2023-01-18T07:35:21.958Z,-2.70
2023-01-18T07:37:53.134Z,-2.66
2023-01-18T07:40:21.217Z,-2.60
2023-01-18T07:42:48.877Z,-2.48
2023-01-18T07:45:15.584Z,-2.50
2023-01-18T07:47:42.531Z,-2.50
2023-01-18T07:50:09.977Z,-2.51
2023-01-18T07:52:36.409Z,-2.49
2023-01-18T07:55:03.724Z,-2.49
2023-01-18T07:57:31.076Z,-2.39
2023-01-18T07:59:57.563Z,-2.32
2023-01-18T08:02:24.198Z,-2.36
2023-01-18T08:04:50.626Z,-2.34
2023-01-18T08:07:17.809Z,-2.31
2023-01-18T08:09:44.605Z,-2.22
2023-01-18T08:12:13.788Z,-2.24
2023-01-18T08:14:40.415Z,-2.25
2023-01-18T08:17:07.023Z,-2.23
2023-01-18T08:19:34.007Z,-2.26
2023-01-18T08:22:00.406Z,-2.23
2023-01-18T08:24:29.099Z,-2.33
2023-01-18T08:26:55.518Z,-2.26
2023-01-18T08:29:21.987Z,-2.28
2023-01-18T08:31:54.179Z,-2.15
2023-01-18T08:34:21.681Z,-2.13
2023-01-18T08:36:48.074Z,-2.13
2023-01-18T08:39:14.982Z,-2.03
2023-01-18T08:41:41.863Z,-1.97
2023-01-18T08:44:08.274Z,-1.81
2023-01-18T08:46:36.161Z,-1.80
2023-01-18T08:49:05.568Z,-1.78
2023-01-18T08:51:32.545Z,-1.76
2023-01-18T08:53:59.763Z,-1.70
2023-01-18T08:56:26.560Z,-1.61
2023-01-18T08:58:53.018Z,-1.57
2023-01-18T09:01:19.810Z,-1.50
2023-01-18T09:03:47.928Z,-1.52
2023-01-18T09:06:16.600Z,-1.46
2023-01-18T09:08:43.105Z,-1.37
2023-01-18T09:11:10.421Z,-1.33
2023-01-18T09:13:47.859Z,-1.14
2023-01-18T09:16:25.408Z,-1.13
2023-01-18T09:18:52.063Z,-1.10
2023-01-18T09:21:18.513Z,-1.01
2023-01-18T09:23:45.564Z,-1.07
2023-01-18T09:26:16.985Z,-0.94
2023-01-18T09:28:44.818Z,-0.94
2023-01-18T09:31:12.345Z,-0.83
2023-01-18T09:33:39.747Z,-0.88
2023-01-18T09:36:09.852Z,-0.90
2023-01-18T09:38:37.611Z,-0.88
2023-01-18T09:41:15.137Z,-0.78
2023-01-18T09:43:51.278Z,-0.70
2023-01-18T09:46:22.843Z,-0.63
2023-01-18T09:48:58.093Z,-0.77
2023-01-18T09:51:31.357Z,-0.73
2023-01-18T09:54:25.722Z,-0.73
2023-01-18T09:56:52.021Z,-0.55
2023-01-18T09:59:19.208Z,-0.44
2023-01-18T10:01:46.087Z,-0.47
2023-01-18T10:04:17.099Z,-0.37
2023-01-18T10:06:59.361Z,-0.31
2023-01-18T10:09:32.431Z,-0.41
2023-01-18T10:12:23.538Z,-0.29
2023-01-18T10:14:56.959Z,0.00
2023-01-18T10:17:35.574Z,-0.03
2023-01-18T10:20:13.132Z,0.17
2023-01-18T10:22:47.642Z,0.26
2023-01-18T10:25:33.026Z,0.26
2023-01-18T10:28:25.049Z,0.29
2023-01-18T10:31:29.136Z,0.27
2023-01-18T10:33:57.506Z,0.23
2023-01-18T10:36:34.852Z,0.29
2023-01-18T10:39:04.199Z,0.15
2023-01-18T10:41:37.877Z,0.30
2023-01-18T10:44:04.443Z,0.38
2023-01-18T10:46:32.058Z,0.31
2023-01-18T10:48:59.122Z,0.14
2023-01-18T10:51:38.747Z,0.12
2023-01-18T10:54:22.460Z,0.08
2023-01-18T10:56:49.215Z,0.08
2023-01-18T10:59:25.134Z,0.06
2023-01-18T11:01:54.459Z,0.10
2023-01-18T11:04:24.954Z,0.18
2023-01-18T11:06:52.145Z,0.35
2023-01-18T11:09:36.879Z,0.40
2023-01-18T11:12:41.371Z,0.37
2023-01-18T11:15:13.991Z,0.42
2023-01-18T11:17:44.474Z,0.41
2023-01-18T11:20:23.259Z,0.53
2023-01-18T11:22:59.494Z,0.50
2023-01-18T11:25:37.562Z,0.61
2023-01-18T11:28:07.330Z,0.61
2023-01-18T11:30:34.150Z,0.67
2023-01-18T11:33:00.951Z,0.71
2023-01-18T11:35:32.214Z,0.77
2023-01-18T11:38:00.759Z,0.83
2023-01-18T11:40:29.570Z,0.88
2023-01-18T11:43:09.230Z,0.89
2023-01-18T11:45:59.295Z,0.93
2023-01-18T11:49:03.098Z,1.03
2023-01-18T11:51:43.676Z,0.98
2023-01-18T11:54:18.746Z,0.99
2023-01-18T11:56:49.031Z,1.14
2023-01-18T11:59:28.062Z,1.11
2023-01-18T12:02:31.946Z,1.07
2023-01-18T12:05:52.956Z,1.06
2023-01-18T12:08:40.740Z,1.05
2023-01-18T12:11:19.900Z,1.14
2023-01-18T12:13:57.797Z,1.24
2023-01-18T12:16:51.409Z,1.28
2023-01-18T12:19:26.658Z,1.38
2023-01-18T12:22:09.381Z,1.44
2023-01-18T12:24:49.286Z,1.51
2023-01-18T12:28:00.612Z,1.58
2023-01-18T12:30:33.179Z,1.64
2023-01-18T12:33:18.300Z,1.63
2023-01-18T12:35:59.739Z,1.64
2023-01-18T12:38:27.976Z,1.67
2023-01-18T12:41:33.911Z,1.57
2023-01-18T12:44:16.962Z,1.61
2023-01-18T12:46:46.192Z,1.82
2023-01-18T12:49:21.331Z,1.78
2023-01-18T12:51:51.791Z,1.75
2023-01-18T12:54:39.790Z,1.86
2023-01-18T12:57:06.651Z,1.89
2023-01-18T13:00:07.047Z,1.94
2023-01-18T13:02:39.066Z,1.78
2023-01-18T13:05:36.910Z,1.91
2023-01-18T13:08:14.529Z,2.03
2023-01-18T13:10:41.587Z,2.08
2023-01-18T13:13:27.122Z,2.13
2023-01-18T13:15:59.108Z,2.06
2023-01-18T13:18:34.269Z,2.07
2023-01-18T13:21:12.732Z,2.21
2023-01-18T13:23:50.378Z,2.26
2023-01-18T13:26:22.190Z,2.27
2023-01-18T13:28:48.581Z,2.32
2023-01-18T13:31:15.485Z,2.29
2023-01-18T13:33:45.363Z,2.37
2023-01-18T13:36:14.237Z,2.39
2023-01-18T13:39:01.086Z,2.27
2023-01-18T13:41:29.361Z,2.24
2023-01-18T13:43:58.628Z,2.25
2023-01-18T13:46:25.843Z,2.18
2023-01-18T13:49:35.842Z,2.25
2023-01-18T13:52:30.507Z,2.29
2023-01-18T13:55:00.960Z,2.24
2023-01-18T13:57:27.488Z,2.31
2023-01-18T13:59:54.072Z,2.34
2023-01-18T14:02:41.986Z,2.31
2023-01-18T14:05:17.768Z,2.20
2023-01-18T14:07:47.252Z,2.30
2023-01-18T14:10:36.329Z,2.30
2023-01-18T14:13:08.293Z,2.23
2023-01-18T14:15:47.255Z,2.24
2023-01-18T14:18:27.514Z,2.28
2023-01-18T14:21:47.882Z,2.28
2023-01-18T14:24:37.569Z,2.25
2023-01-18T14:27:04.946Z,2.16
2023-01-18T14:29:36.850Z,2.21
2023-01-18T14:32:05.923Z,2.18
2023-01-18T14:34:40.639Z,2.02
2023-01-18T14:37:32.293Z,2.13
2023-01-18T14:40:05.816Z,2.07
2023-01-18T14:42:34.798Z,2.14
2023-01-18T14:45:05.933Z,2.18
2023-01-18T14:47:33.396Z,2.10
2023-01-18T14:50:03.869Z,1.95
2023-01-18T14:52:32.191Z,1.98
2023-01-18T14:54:58.600Z,1.94
2023-01-18T14:57:24.968Z,1.91
2023-01-18T14:59:53.412Z,1.82
2023-01-18T15:02:27.449Z,1.84
2023-01-18T15:05:16.702Z,1.84
2023-01-18T15:07:45.695Z,1.84
2023-01-18T15:10:16.486Z,1.80
2023-01-18T15:12:45.731Z,1.81
2023-01-18T15:15:22.143Z,1.68
2023-01-18T15:17:49.498Z,1.66
2023-01-18T15:20:16.004Z,1.52
2023-01-18T15:22:42.977Z,1.54
2023-01-18T15:25:19.679Z,1.56
2023-01-18T15:27:51.230Z,1.52
2023-01-18T15:30:19.524Z,1.47
2023-01-18T15:32:47.794Z,1.46
2023-01-18T15:35:14.643Z,1.40
2023-01-18T15:37:41.947Z,1.41
2023-01-18T15:40:14.303Z,1.38
2023-01-18T15:42:48.095Z,1.39
2023-01-18T15:45:20.748Z,1.32
2023-01-18T15:47:48.963Z,1.27
2023-01-18T15:50:18.991Z,1.28
2023-01-18T15:53:06.161Z,1.22
2023-01-18T15:55:34.995Z,1.12
2023-01-18T15:58:04.347Z,1.08
2023-01-18T16:00:37.946Z,1.07
2023-01-18T16:03:05.903Z,1.04
2023-01-18T16:05:32.584Z,0.96
2023-01-18T16:08:17.857Z,1.02
2023-01-18T16:10:52.841Z,1.04
2023-01-18T16:13:37.168Z,1.08
2023-01-18T16:16:17.452Z,1.08
2023-01-18T16:18:47.357Z,1.05
2023-01-18T16:21:21.424Z,1.05
2023-01-18T16:23:49.260Z,1.01
2023-01-18T16:26:18.907Z,0.97
2023-01-18T16:28:45.404Z,0.96
2023-01-18T16:31:12.073Z,0.96
2023-01-18T16:33:38.495Z,0.93
2023-01-18T16:36:16.943Z,0.81
2023-01-18T16:38:43.407Z,0.84
2023-01-18T16:41:10.364Z,0.87
2023-01-18T16:43:36.728Z,0.79
2023-01-18T16:46:04.388Z,0.80
2023-01-18T16:48:33.443Z,0.84
2023-01-18T16:51:01.234Z,0.84
2023-01-18T16:53:28.624Z,0.80
2023-01-18T16:55:56.548Z,0.80
2023-01-18T16:58:23.923Z,0.79
2023-01-18T17:01:06.937Z,0.75
2023-01-18T17:03:35.810Z,0.76
2023-01-18T17:06:02.795Z,0.74
2023-01-18T17:08:29.356Z,0.70
2023-01-18T17:10:55.815Z,0.69
2023-01-18T17:13:22.263Z,0.61
2023-01-18T17:15:48.675Z,0.64
2023-01-18T17:18:25.325Z,0.67
2023-01-18T17:20:52.929Z,0.62
2023-01-18T17:23:19.490Z,0.63
2023-01-18T17:25:46.358Z,0.65
2023-01-18T17:28:14.535Z,0.69
2023-01-18T17:30:42.332Z,0.64
2023-01-18T17:33:14.728Z,0.56
2023-01-18T17:35:41.104Z,0.55
2023-01-18T17:38:22.097Z,0.57
2023-01-18T17:40:49.325Z,0.53
2023-01-18T17:43:28.547Z,0.46
2023-01-18T17:46:01.999Z,0.48
2023-01-18T17:48:28.766Z,0.51
2023-01-18T17:50:55.139Z,0.46
2023-01-18T17:53:21.518Z,0.47
2023-01-18T17:55:47.890Z,0.45
2023-01-18T17:58:14.284Z,0.45
2023-01-18T18:00:40.740Z,0.44
2023-01-18T18:03:07.724Z,0.51
2023-01-18T18:05:34.320Z,0.44
2023-01-18T18:08:00.823Z,0.49
2023-01-18T18:10:27.232Z,0.59
2023-01-18T18:12:53.622Z,0.61
2023-01-18T18:15:22.307Z,0.55
2023-01-18T18:17:49.387Z,0.46
2023-01-18T18:20:16.111Z,0.46
2023-01-18T18:22:42.608Z,0.47
2023-01-18T18:25:09.283Z,0.45
2023-01-18T18:27:45.517Z,0.47
2023-01-18T18:30:12.818Z,0.37
2023-01-18T18:32:39.211Z,0.43
2023-01-18T18:35:14.821Z,0.45
2023-01-18T18:37:50.325Z,0.54
2023-01-18T18:40:16.957Z,0.49
2023-01-18T18:42:47.312Z,0.48
2023-01-18T18:45:19.522Z,0.49
2023-01-18T18:47:45.903Z,0.43
2023-01-18T18:50:12.274Z,0.45
2023-01-18T18:52:38.657Z,0.39
2023-01-18T18:55:05.412Z,0.39
2023-01-18T18:57:32.016Z,0.45
2023-01-18T18:59:58.574Z,0.38
2023-01-18T19:02:25.080Z,0.40
2023-01-18T19:04:51.483Z,0.44
2023-01-18T19:07:18.652Z,0.41
2023-01-18T19:09:45.014Z,0.34
2023-01-18T19:12:11.725Z,0.36
2023-01-18T19:14:38.236Z,0.36
2023-01-18T19:17:04.627Z,0.41
2023-01-18T19:19:31.134Z,0.42
2023-01-18T19:21:57.494Z,0.37
2023-01-18T19:24:24.073Z,0.33
2023-01-18T19:26:50.436Z,0.39
2023-01-18T19:29:16.876Z,0.41
2023-01-18T19:31:43.324Z,0.41
2023-01-18T19:34:09.815Z,0.43
2023-01-18T19:36:36.166Z,0.35
2023-01-18T19:39:03.476Z,0.34
2023-01-18T19:41:31.956Z,0.35
2023-01-18T19:43:58.406Z,0.31
2023-01-18T19:46:24.817Z,0.23
2023-01-18T19:48:56.508Z,0.21
2023-01-18T19:51:23.336Z,0.30
2023-01-18T19:53:52.504Z,0.30
2023-01-18T19:56:19.184Z,0.29
2023-01-18T19:58:45.609Z,0.28
2023-01-18T20:01:20.451Z,0.35
2023-01-18T20:03:53.150Z,0.38
2023-01-18T20:06:19.980Z,0.31
2023-01-18T20:08:46.658Z,0.29
2023-01-18T20:11:14.587Z,0.28
2023-01-18T20:13:43.928Z,0.31
2023-01-18T20:16:10.347Z,0.31
2023-01-18T20:18:40.764Z,0.33
2023-01-18T20:21:12.224Z,0.36
2023-01-18T20:23:38.658Z,0.36
2023-01-18T20:26:05.705Z,0.35
2023-01-18T20:28:33.049Z,0.40
2023-01-18T20:31:02.736Z,0.44
2023-01-18T20:33:29.458Z,0.40
2023-01-18T20:35:55.861Z,0.44
2023-01-18T20:38:22.236Z,0.50
2023-01-18T20:40:48.594Z,0.57
2023-01-18T20:43:15.200Z,0.53
2023-01-18T20:45:41.634Z,0.52
2023-01-18T20:48:08.118Z,0.59
2023-01-18T20:50:34.556Z,0.67
2023-01-18T20:53:01.310Z,0.56
2023-01-18T20:55:27.887Z,0.60
2023-01-18T20:57:55.189Z,0.69
2023-01-18T21:00:22.458Z,0.63
2023-01-18T21:02:49.437Z,0.56
2023-01-18T21:05:15.858Z,0.62
2023-01-18T21:07:42.416Z,0.61
2023-01-18T21:10:10.484Z,0.72
2023-01-18T21:12:36.947Z,0.64
2023-01-18T21:15:06.468Z,0.63
2023-01-18T21:17:32.930Z,0.72
2023-01-18T21:19:59.302Z,0.68
2023-01-18T21:22:25.706Z,0.72
2023-01-18T21:24:52.266Z,0.74
2023-01-18T21:27:18.676Z,0.74
2023-01-18T21:29:45.316Z,0.84
2023-01-18T21:32:11.701Z,0.85
2023-01-18T21:34:38.083Z,0.81
2023-01-18T21:37:04.471Z,0.78
2023-01-18T21:39:30.952Z,0.74
2023-01-18T21:42:16.251Z,0.76
2023-01-18T21:45:01.387Z,0.82
2023-01-18T21:47:27.771Z,0.80
2023-01-18T21:50:17.916Z,0.81
2023-01-18T21:53:03.513Z,0.81
2023-01-18T21:55:29.918Z,0.83
2023-01-18T21:58:22.400Z,0.84
2023-01-18T22:00:48.830Z,0.79
2023-01-18T22:03:18.254Z,0.77
2023-01-18T22:05:44.722Z,0.84
2023-01-18T22:08:11.094Z,0.85
2023-01-18T22:10:37.492Z,0.86
2023-01-18T22:13:03.878Z,0.81
2023-01-18T22:15:30.278Z,0.77
2023-01-18T22:17:56.804Z,0.78
2023-01-18T22:20:23.182Z,0.83
2023-01-18T22:22:50.376Z,0.75
2023-01-18T22:25:16.801Z,0.77
2023-01-18T22:27:43.240Z,0.75
2023-01-18T22:30:10.374Z,0.77
2023-01-18T22:32:36.745Z,0.83
2023-01-18T22:35:03.150Z,0.82
2023-01-18T22:37:29.665Z,0.77
2023-01-18T22:39:56.043Z,0.75
2023-01-18T22:42:22.451Z,0.83
2023-01-18T22:44:48.847Z,0.88
2023-01-18T22:47:15.217Z,0.82
2023-01-18T22:49:41.695Z,0.74
2023-01-18T22:52:08.092Z,0.77
2023-01-18T22:54:34.514Z,0.77
2023-01-18T22:57:00.961Z,0.80
2023-01-18T22:59:27.434Z,0.75
2023-01-18T23:01:53.846Z,0.76
2023-01-18T23:04:20.467Z,0.80
2023-01-18T23:06:47.679Z,0.68
2023-01-18T23:09:16.069Z,0.70
2023-01-18T23:11:42.771Z,0.63
2023-01-18T23:14:27.789Z,0.69
2023-01-18T23:17:13.003Z,0.71
2023-01-18T23:19:39.434Z,0.71
2023-01-18T23:22:07.247Z,0.74
2023-01-18T23:24:35.235Z,0.74
2023-01-18T23:27:02.053Z,0.76
2023-01-18T23:29:28.430Z,0.78
2023-01-18T23:31:56.141Z,0.80
2023-01-18T23:34:23.939Z,0.88
2023-01-18T23:36:51.138Z,0.88
2023-01-18T23:39:36.216Z,0.94
2023-01-18T23:42:21.050Z,0.95
2023-01-18T23:45:06.086Z,0.99
2023-01-18T23:47:51.196Z,1.00
2023-01-18T23:50:36.332Z,0.91
2023-01-18T23:53:21.013Z,0.92
2023-01-18T23:55:51.104Z,0.94
2023-01-18T23:58:17.518Z,0.81
